Terminal Aerodrome Forecast
Issued by NWS

Home | Current Version | Previous Version | Graphics & Text | Print | Product List | Glossary On
Versions: 1 2 3 4 5 6 7 8 9 10 11 12 13 14
000
FTUS41 KCLE 251100
TAFFDY
TAF
KFDY 251137Z 2512/2612 19015G22KT P6SM VCSH SCT050 OVC120
     FM251700 22020G30KT P6SM VCSH BKN050 OVC120
      TEMPO 2517/2519 6SM -SHRA BKN045 OVC080
     FM252000 23022G32KT P6SM SCT050 BKN250
     FM260000 24010KT P6SM SCT040 BKN250
     FM260900 20008KT P6SM BKN015=

USA.gov is the U.S. government's official web portal to all federal, state and local government web resources and services.